createdAt,value
2022-11-20T02:47:05.199Z,99025.22
2022-11-20T02:48:09.384Z,99031.38
2022-11-20T02:49:13.458Z,99032.19
2022-11-20T02:50:20.100Z,99027.81
2022-11-20T02:51:25.011Z,99030.41
2022-11-20T02:52:28.980Z,99031.28
2022-11-20T02:53:41.712Z,99029.53
2022-11-20T02:54:55.780Z,99030.34
2022-11-20T02:56:00.645Z,99019.16
2022-11-20T02:57:07.134Z,99026.13
2022-11-20T02:58:13.710Z,99031.28
2022-11-20T02:59:17.487Z,99026.84
2022-11-20T03:00:25.692Z,99021.56
2022-11-20T03:03:37.972Z,99029.34
2022-11-20T03:04:43.334Z,99031.03
2022-11-20T03:05:46.920Z,99030.22
2022-11-20T03:06:50.410Z,99023.28
2022-11-20T03:07:56.106Z,99025.94
2022-11-20T03:09:05.312Z,99024.22
2022-11-20T03:10:10.193Z,99014.66
2022-11-20T03:11:14.359Z,99027.69
2022-11-20T03:12:20.452Z,99020.81
2022-11-20T03:13:27.767Z,99014.81
2022-11-20T03:14:36.150Z,99016.50
2022-11-20T03:15:50.573Z,99012.19
2022-11-20T03:16:54.072Z,99014.81
2022-11-20T03:17:59.066Z,99012.16
2022-11-20T03:19:16.024Z,99012.16
2022-11-20T03:20:19.824Z,99022.56
2022-11-20T03:21:26.448Z,99011.31
2022-11-20T03:22:33.292Z,99013.91
2022-11-20T03:23:39.627Z,99013.91
2022-11-20T03:24:47.532Z,99014.81
2022-11-20T03:25:54.922Z,99021.72
2022-11-20T03:26:59.025Z,99017.41
2022-11-20T03:28:02.599Z,99024.38
2022-11-20T03:29:06.660Z,99016.56
2022-11-20T03:30:13.102Z,99017.41
2022-11-20T03:31:24.745Z,99020.81
2022-11-20T03:32:28.755Z,99017.34
2022-11-20T03:33:32.284Z,99020.06
2022-11-20T03:34:35.879Z,99022.63
2022-11-20T03:35:39.986Z,99018.34
2022-11-20T03:36:46.086Z,99016.66
2022-11-20T03:37:52.474Z,99008.03
2022-11-20T03:39:00.261Z,99007.13
2022-11-20T03:40:06.588Z,99012.38
2022-11-20T03:41:21.171Z,99000.19
2022-11-20T03:42:49.081Z,99008.16
2022-11-20T03:44:07.647Z,99000.22
2022-11-20T03:45:16.410Z,98993.31
2022-11-20T03:46:21.008Z,98997.63
2022-11-20T03:47:29.821Z,99001.06
2022-11-20T03:48:39.258Z,99000.19
2022-11-20T03:49:50.200Z,98996.75
2022-11-20T03:51:27.845Z,99004.56
2022-11-20T03:52:33.923Z,98996.81
2022-11-20T03:53:46.203Z,98995.91
2022-11-20T03:54:56.427Z,98997.75
2022-11-20T03:56:00.518Z,99000.34
2022-11-20T03:57:05.803Z,98999.41
2022-11-20T03:58:14.538Z,98998.72
2022-11-20T03:59:18.317Z,99000.19
2022-11-20T04:00:22.243Z,98998.59
2022-11-20T04:01:30.557Z,99007.22
2022-11-20T04:02:34.681Z,98998.47
2022-11-20T04:03:43.656Z,99006.16
2022-11-20T04:04:47.821Z,99003.50
2022-11-20T04:05:53.840Z,99003.38
2022-11-20T04:06:58.998Z,99004.22
2022-11-20T04:08:02.999Z,98998.16
2022-11-20T04:09:08.203Z,98999.81
2022-11-20T04:10:14.859Z,98995.50
2022-11-20T04:11:26.774Z,98999.00
2022-11-20T04:12:38.744Z,98993.75
2022-11-20T04:13:56.669Z,98997.25
2022-11-20T04:15:00.825Z,98998.13
2022-11-20T04:16:06.355Z,98996.38
2022-11-20T04:17:13.146Z,98993.81
2022-11-20T04:18:23.491Z,99000.69
2022-11-20T04:19:36.231Z,98996.31
2022-11-20T04:20:43.407Z,98995.47
2022-11-20T04:21:48.136Z,98994.72
2022-11-20T04:22:58.084Z,98996.47
2022-11-20T04:24:02.352Z,98998.16
2022-11-20T04:25:10.310Z,98997.28
2022-11-20T04:26:18.890Z,98990.38
2022-11-20T04:27:23.817Z,98993.41
2022-11-20T04:28:30.804Z,98997.97
2022-11-20T04:29:36.116Z,98991.91
2022-11-20T04:30:42.674Z,98997.03
2022-11-20T04:31:46.856Z,98986.63
2022-11-20T04:32:59.431Z,98985.69
2022-11-20T04:34:08.933Z,98983.09
2022-11-20T04:35:15.877Z,98983.88
2022-11-20T04:36:27.967Z,98985.63
2022-11-20T04:37:32.134Z,98986.50
2022-11-20T04:38:38.215Z,98987.34
2022-11-20T04:39:47.319Z,98990.00
2022-11-20T04:40:58.510Z,98974.47
2022-11-20T04:42:25.701Z,98982.19
2022-11-20T04:43:36.996Z,98977.84
2022-11-20T04:44:41.034Z,98978.69
2022-11-20T04:45:44.466Z,98986.53
2022-11-20T04:46:50.632Z,98980.53
2022-11-20T04:47:58.410Z,98977.91
2022-11-20T04:49:10.918Z,98985.72
2022-11-20T04:50:23.025Z,98983.94
2022-11-20T04:51:35.427Z,98981.41
2022-11-20T04:52:45.342Z,98983.09
2022-11-20T04:53:51.603Z,98982.31
2022-11-20T04:54:59.508Z,98978.72
2022-11-20T04:56:08.357Z,98972.63
2022-11-20T04:57:17.990Z,98977.84
2022-11-20T04:58:28.612Z,98974.38
2022-11-20T04:59:42.796Z,98975.25
2022-11-20T05:00:49.219Z,98970.03
2022-11-20T05:01:52.980Z,98971.72
2022-11-20T05:02:56.526Z,98972.59
2022-11-20T05:03:59.889Z,98969.94
2022-11-20T05:05:03.447Z,98978.56
2022-11-20T05:06:09.143Z,98978.56
2022-11-20T05:07:13.249Z,98978.56
2022-11-20T05:08:16.835Z,98975.09
2022-11-20T05:09:20.584Z,98975.09
2022-11-20T05:10:25.605Z,98976.00
2022-11-20T05:11:32.134Z,98975.16
2022-11-20T05:12:43.839Z,98979.50
2022-11-20T05:13:52.980Z,98976.91
2022-11-20T05:15:05.977Z,98980.38
2022-11-20T05:16:17.445Z,98977.78
2022-11-20T05:17:23.886Z,98976.13
2022-11-20T05:18:28.651Z,98974.28
2022-11-20T05:19:35.719Z,98979.50
2022-11-20T05:20:43.947Z,98983.00
2022-11-20T05:21:53.652Z,98973.47
2022-11-20T05:23:02.363Z,98975.19
2022-11-20T05:24:15.630Z,98976.97
2022-11-20T05:25:23.313Z,98974.38
2022-11-20T05:26:32.394Z,98973.53
2022-11-20T05:27:59.052Z,98979.59
2022-11-20T05:29:10.263Z,98969.19
2022-11-20T05:30:19.415Z,98970.06
2022-11-20T05:31:30.182Z,98968.44
2022-11-20T05:32:56.635Z,98968.44
2022-11-20T05:35:24.956Z,98979.81
2022-11-20T05:36:32.646Z,98968.59
2022-11-20T05:37:50.501Z,98968.59
2022-11-20T05:39:01.715Z,98960.91
2022-11-20T05:41:45.503Z,98964.38
2022-11-20T05:42:53.003Z,98959.16
2022-11-20T05:44:05.203Z,98954.91
2022-11-20T05:45:11.874Z,98957.59
2022-11-20T05:46:28.115Z,98957.69
2022-11-20T05:47:41.684Z,98956.81
2022-11-20T05:49:01.041Z,98951.63
2022-11-20T05:50:07.246Z,98949.88
2022-11-20T05:51:18.979Z,98945.41
2022-11-20T05:52:32.394Z,98950.56
2022-11-20T05:53:46.873Z,98951.44
2022-11-20T05:56:24.232Z,98953.16
2022-11-20T05:57:27.877Z,98950.56
2022-11-20T05:58:42.948Z,98959.16
2022-11-20T05:59:54.951Z,98954.78
2022-11-20T06:01:28.652Z,98958.22
2022-11-20T06:02:40.881Z,98948.72
2022-11-20T06:04:01.224Z,98953.03
2022-11-20T06:05:15.795Z,98951.38
2022-11-20T06:06:21.867Z,98951.41
2022-11-20T06:07:29.814Z,98949.16
2022-11-20T06:08:35.458Z,98953.34
2022-11-20T06:09:44.483Z,98957.59
2022-11-20T06:10:52.293Z,98954.06
2022-11-20T06:11:59.432Z,98947.19
2022-11-20T06:13:04.383Z,98955.88
2022-11-20T06:14:11.749Z,98959.50
2022-11-20T06:15:15.885Z,98959.59
2022-11-20T06:17:54.098Z,98958.81
2022-11-20T06:19:09.545Z,98959.63
2022-11-20T06:21:43.959Z,98957.06
2022-11-20T06:22:56.861Z,98963.97
2022-11-20T06:24:03.115Z,98956.94
2022-11-20T06:25:08.429Z,98957.78
2022-11-20T06:26:20.486Z,98950.88
2022-11-20T06:27:36.440Z,98958.53
2022-11-20T06:28:48.140Z,98955.13
2022-11-20T06:29:51.917Z,98947.28
2022-11-20T06:31:00.616Z,98953.19
2022-11-20T06:32:04.363Z,98957.50
2022-11-20T06:33:09.572Z,98947.06
2022-11-20T06:34:14.240Z,98953.97
2022-11-20T06:35:24.071Z,98944.56
2022-11-20T06:36:29.813Z,98947.09
2022-11-20T06:37:38.766Z,98943.56
2022-11-20T06:39:12.972Z,98945.34
2022-11-20T06:40:22.263Z,98942.59
2022-11-20T06:41:27.220Z,98945.13
2022-11-20T06:42:30.700Z,98935.59
2022-11-20T06:43:39.068Z,98934.81
2022-11-20T06:44:44.849Z,98937.47
2022-11-20T06:45:58.203Z,98940.97
2022-11-20T06:47:04.986Z,98942.72
2022-11-20T06:48:08.929Z,98934.03
2022-11-20T06:49:20.161Z,98939.13
2022-11-20T06:50:27.501Z,98937.41
2022-11-20T06:51:34.671Z,98935.69
2022-11-20T06:52:43.478Z,98939.13
2022-11-20T06:53:47.294Z,98941.06
2022-11-20T06:54:51.244Z,98936.78
2022-11-20T06:55:59.004Z,98942.00
2022-11-20T06:57:02.689Z,98932.53
2022-11-20T06:58:06.223Z,98933.50
2022-11-20T06:59:10.038Z,98933.50
2022-11-20T07:00:18.111Z,98933.53
2022-11-20T07:01:22.538Z,98930.94
2022-11-20T07:02:26.087Z,98930.88
2022-11-20T07:03:29.954Z,98934.31
2022-11-20T07:04:33.570Z,98933.50
2022-11-20T07:05:38.409Z,98936.91
2022-11-20T07:06:42.083Z,98934.31
2022-11-20T07:07:45.571Z,98933.44
2022-11-20T07:08:53.601Z,98933.44
2022-11-20T07:09:57.041Z,98942.06
2022-11-20T07:11:03.609Z,98941.22
2022-11-20T07:12:07.922Z,98948.91
2022-11-20T07:13:11.564Z,98940.28
2022-11-20T07:14:15.052Z,98936.78
2022-11-20T07:15:20.181Z,98948.00
2022-11-20T07:16:23.669Z,98945.34
2022-11-20T07:17:27.457Z,98947.06
2022-11-20T07:18:31.001Z,98953.06
2022-11-20T07:19:34.549Z,98955.63
2022-11-20T07:20:38.088Z,98947.84
2022-11-20T07:21:41.776Z,98947.81
2022-11-20T07:22:45.879Z,98951.28
2022-11-20T07:23:49.270Z,98947.78
2022-11-20T07:24:52.700Z,98946.97
2022-11-20T07:25:56.179Z,98946.97
2022-11-20T07:26:59.640Z,98945.31
2022-11-20T07:28:03.722Z,98946.97
2022-11-20T07:29:07.466Z,98946.16
2022-11-20T07:30:11.872Z,98943.47
2022-11-20T07:31:19.157Z,98940.06
2022-11-20T07:32:23.450Z,98946.94
2022-11-20T07:33:27.016Z,98953.94
2022-11-20T07:34:30.399Z,98953.13
2022-11-20T07:35:34.127Z,98954.03
2022-11-20T07:36:40.176Z,98959.25
2022-11-20T07:37:44.024Z,98952.31
2022-11-20T07:38:48.085Z,98957.50
2022-11-20T07:39:51.587Z,98961.91
2022-11-20T07:40:57.490Z,98967.13
2022-11-20T07:42:00.919Z,98972.34
2022-11-20T07:43:04.331Z,98962.75
2022-11-20T07:44:08.247Z,98969.66
2022-11-20T07:45:11.722Z,98967.00
2022-11-20T07:46:15.376Z,98967.72
2022-11-20T07:47:18.747Z,98967.06
2022-11-20T07:48:22.241Z,98964.28
2022-11-20T07:49:26.010Z,98965.09
2022-11-20T07:50:29.479Z,98965.00
2022-11-20T07:51:32.943Z,98966.59
2022-11-20T07:52:36.308Z,98970.00
2022-11-20T07:53:39.658Z,98966.53
2022-11-20T07:54:46.817Z,98975.94
2022-11-20T07:55:53.564Z,98968.03
2022-11-20T07:56:57.206Z,98972.28
2022-11-20T07:58:00.969Z,98968.81
2022-11-20T07:59:04.884Z,98973.13
2022-11-20T08:00:12.189Z,98976.59
2022-11-20T08:01:15.635Z,98973.03
2022-11-20T08:02:19.278Z,98973.97
2022-11-20T08:03:25.203Z,98979.94
2022-11-20T08:04:29.349Z,98976.47
2022-11-20T08:05:33.805Z,98978.13
2022-11-20T08:06:38.102Z,98977.22
2022-11-20T08:07:44.178Z,98973.81
2022-11-20T08:08:47.649Z,98978.00
2022-11-20T08:09:51.205Z,98983.09
2022-11-20T08:11:15.169Z,98980.44
2022-11-20T08:12:41.075Z,98984.06
2022-11-20T08:14:03.829Z,98979.72
2022-11-20T08:15:13.157Z,98979.88
2022-11-20T08:16:17.440Z,98971.25
2022-11-20T08:17:20.986Z,98979.09
2022-11-20T08:18:31.120Z,98972.13
2022-11-20T08:19:35.411Z,98976.44
2022-11-20T08:20:39.790Z,98977.31
2022-11-20T08:21:43.958Z,98975.59
2022-11-20T08:22:47.387Z,98971.19
2022-11-20T08:23:51.023Z,98967.75
2022-11-20T08:24:54.510Z,98967.75
2022-11-20T08:25:58.571Z,98967.69
2022-11-20T08:27:03.278Z,98970.31
2022-11-20T08:28:19.895Z,98964.25
2022-11-20T08:29:24.840Z,98965.16
2022-11-20T08:30:28.988Z,98964.16
2022-11-20T08:31:33.465Z,98963.25
2022-11-20T08:32:38.728Z,98965.72
2022-11-20T08:33:42.317Z,98968.31
2022-11-20T08:34:47.474Z,98951.81
2022-11-20T08:35:50.895Z,98958.75
2022-11-20T08:36:54.703Z,98966.53
2022-11-20T08:37:58.626Z,98961.31
2022-11-20T08:39:02.477Z,98958.72
2022-11-20T08:40:07.526Z,98957.91
2022-11-20T08:41:29.373Z,98957.91
2022-11-20T08:42:32.850Z,98952.66
2022-11-20T08:43:36.693Z,98954.41
2022-11-20T08:44:40.278Z,98944.00
2022-11-20T08:45:43.773Z,98948.34
2022-11-20T08:46:48.142Z,98947.47
2022-11-20T08:47:51.682Z,98955.25
2022-11-20T08:48:55.947Z,98958.72
2022-11-20T08:49:59.419Z,98951.88
2022-11-20T08:51:02.994Z,98951.75
2022-11-20T08:52:06.982Z,98945.63
2022-11-20T08:53:10.787Z,98942.91
2022-11-20T08:54:14.813Z,98949.94
2022-11-20T08:55:18.429Z,98944.56
2022-11-20T08:56:21.991Z,98947.13
2022-11-20T08:57:25.562Z,98939.31
2022-11-20T08:58:29.055Z,98939.25
2022-11-20T09:00:57.517Z,98934.81
2022-11-20T09:02:00.955Z,98931.25
2022-11-20T09:03:04.714Z,98932.06
2022-11-20T09:04:08.437Z,98933.06
2022-11-20T09:05:12.675Z,98935.50
2022-11-20T09:06:17.567Z,98936.31
2022-11-20T09:07:21.605Z,98937.06
2022-11-20T09:08:25.160Z,98933.56
2022-11-20T09:09:29.230Z,98941.28
2022-11-20T09:10:33.942Z,98938.56
2022-11-20T09:11:37.399Z,98943.63
2022-11-20T09:12:41.169Z,98937.47
2022-11-20T09:13:44.601Z,98942.66
2022-11-20T09:14:53.728Z,98939.06
2022-11-20T09:16:08.890Z,98931.25
2022-11-20T09:17:16.056Z,98923.28
2022-11-20T09:18:19.633Z,98931.88
2022-11-20T09:19:39.769Z,98931.78
2022-11-20T09:20:44.293Z,98927.38
2022-11-20T09:21:48.494Z,98930.59
2022-11-20T09:22:52.446Z,98934.88
2022-11-20T09:23:55.929Z,98926.13
2022-11-20T09:25:00.544Z,98931.19
2022-11-20T09:26:11.587Z,98930.28
2022-11-20T09:27:15.932Z,98940.66
2022-11-20T09:28:19.944Z,98931.94
2022-11-20T09:29:23.793Z,98937.88
2022-11-20T09:30:28.758Z,98935.28
2022-11-20T09:31:32.376Z,98932.66
2022-11-20T09:32:38.781Z,98935.22
2022-11-20T09:33:42.455Z,98935.16
2022-11-20T09:34:46.188Z,98930.69
2022-11-20T09:35:49.679Z,98932.34
2022-11-20T09:36:53.346Z,98941.81
2022-11-20T09:37:57.567Z,98940.06
2022-11-20T09:39:01.119Z,98936.53
2022-11-20T09:40:05.376Z,98939.06
2022-11-20T09:41:43.431Z,98932.91
2022-11-20T09:43:15.335Z,98932.91
2022-11-20T09:45:14.932Z,98928.53
2022-11-20T09:47:01.264Z,98930.28
2022-11-20T09:48:16.833Z,98933.56
2022-11-20T09:50:17.364Z,98932.84
2022-11-20T09:51:37.072Z,98935.56
2022-11-20T09:53:05.627Z,98930.22
2022-11-20T09:54:22.371Z,98930.97
2022-11-20T09:55:28.283Z,98928.44
2022-11-20T09:56:36.270Z,98931.75
2022-11-20T09:57:46.118Z,98926.38
2022-11-20T09:58:55.032Z,98928.91
2022-11-20T10:00:03.654Z,98931.53
2022-11-20T10:01:20.314Z,98935.72
2022-11-20T10:03:00.035Z,98939.00
2022-11-20T10:04:11.684Z,98935.44
2022-11-20T10:05:31.351Z,98939.84
2022-11-20T10:06:59.682Z,98932.88
2022-11-20T10:08:56.557Z,98936.28
2022-11-20T10:10:01.223Z,98936.16
2022-11-20T10:11:24.609Z,98931.63
2022-11-20T10:13:24.812Z,98934.94
2022-11-20T10:14:47.330Z,98933.28
2022-11-20T10:16:25.087Z,98928.81
2022-11-20T10:17:37.714Z,98929.63
2022-11-20T10:19:33.758Z,98929.63
2022-11-20T10:21:36.941Z,98935.69
2022-11-20T10:23:11.360Z,98940.91
2022-11-20T10:24:33.894Z,98938.22
2022-11-20T10:26:04.458Z,98934.50
2022-11-20T10:27:56.757Z,98930.00
2022-11-20T10:29:19.700Z,98930.81
2022-11-20T10:30:26.006Z,98928.13
2022-11-20T10:31:45.496Z,98926.38
2022-11-20T10:33:20.728Z,98918.41
2022-11-20T10:34:35.984Z,98923.53
2022-11-20T10:35:54.196Z,98919.09
2022-11-20T10:37:07.080Z,98921.63
2022-11-20T10:38:31.855Z,98916.28
2022-11-20T10:39:55.206Z,98918.00
2022-11-20T10:41:22.052Z,98916.16
2022-11-20T10:42:52.295Z,98918.56
2022-11-20T10:44:14.287Z,98919.34
2022-11-20T10:45:52.787Z,98910.00
2022-11-20T10:46:56.871Z,98906.41
2022-11-20T10:48:44.793Z,98900.06
2022-11-20T10:49:54.512Z,98896.38
2022-11-20T10:51:31.291Z,98894.47
2022-11-20T10:53:00.121Z,98887.47
2022-11-20T10:54:33.436Z,98889.44
2022-11-20T10:56:31.950Z,98881.59
2022-11-20T10:58:01.264Z,98880.56
2022-11-20T10:59:13.548Z,98885.72
2022-11-20T11:00:20.563Z,98878.72
2022-11-20T11:01:24.835Z,98877.16
2022-11-20T11:02:45.614Z,98871.72
2022-11-20T11:03:53.086Z,98874.34
2022-11-20T11:04:56.482Z,98873.28
2022-11-20T11:06:20.273Z,98873.25
2022-11-20T11:07:39.863Z,98873.09
2022-11-20T11:08:46.113Z,98871.38
2022-11-20T11:10:01.305Z,98867.81
2022-11-20T11:11:30.256Z,98865.88
2022-11-20T11:12:33.708Z,98862.50
2022-11-20T11:13:37.286Z,98865.31
2022-11-20T11:14:49.916Z,98870.31
2022-11-20T11:15:55.343Z,98869.28
2022-11-20T11:17:00.225Z,98860.50
2022-11-20T11:18:04.148Z,98863.00
2022-11-20T11:19:14.564Z,98860.31
2022-11-20T11:20:25.508Z,98853.19
2022-11-20T11:21:29.566Z,98850.50
2022-11-20T11:22:45.698Z,98850.56
2022-11-20T11:24:26.762Z,98850.41
2022-11-20T11:25:34.944Z,98850.34
2022-11-20T11:26:38.720Z,98849.38
2022-11-20T11:27:51.360Z,98850.06
2022-11-20T11:29:05.189Z,98850.75
2022-11-20T11:30:24.168Z,98851.47
2022-11-20T11:31:32.032Z,98849.72
2022-11-20T11:32:35.962Z,98851.34
2022-11-20T11:33:39.805Z,98856.41
2022-11-20T11:34:59.352Z,98849.34
2022-11-20T11:36:23.130Z,98846.63
2022-11-20T11:37:37.231Z,98848.28
2022-11-20T11:38:47.450Z,98855.94
2022-11-20T11:40:03.984Z,98848.22
2022-11-20T11:41:32.627Z,98846.41
2022-11-20T11:42:36.712Z,98838.50
2022-11-20T11:43:59.865Z,98843.66
2022-11-20T11:45:07.040Z,98837.75
2022-11-20T11:46:33.523Z,98830.88
2022-11-20T11:47:43.054Z,98833.31
2022-11-20T11:49:00.990Z,98832.47
2022-11-20T11:50:10.614Z,98824.50
2022-11-20T11:51:21.970Z,98827.97
2022-11-20T11:52:30.340Z,98819.88
2022-11-20T11:53:42.430Z,98822.50
2022-11-20T11:55:14.549Z,98817.19
2022-11-20T11:56:18.137Z,98810.03
2022-11-20T11:57:48.042Z,98813.59
2022-11-20T11:59:00.581Z,98810.75
2022-11-20T12:00:20.820Z,98809.97
2022-11-20T12:01:34.310Z,98803.97
2022-11-20T12:02:50.129Z,98796.88
2022-11-20T12:04:45.723Z,98804.34
2022-11-20T12:06:05.098Z,98803.28
2022-11-20T12:07:49.430Z,98800.41
2022-11-20T12:09:11.054Z,98798.53
2022-11-20T12:10:28.047Z,98797.66
2022-11-20T12:12:20.274Z,98805.44
2022-11-20T12:13:43.187Z,98810.44
2022-11-20T12:14:52.019Z,98804.38
2022-11-20T12:15:55.915Z,98801.69
2022-11-20T12:17:04.810Z,98801.75
2022-11-20T12:18:25.403Z,98805.03
2022-11-20T12:19:34.398Z,98804.13
2022-11-20T12:20:54.490Z,98815.44
2022-11-20T12:22:40.281Z,98807.41
2022-11-20T12:24:37.119Z,98807.28
2022-11-20T12:25:49.217Z,98802.78
2022-11-20T12:27:05.080Z,98808.88
2022-11-20T12:28:38.737Z,98810.72
2022-11-20T12:30:07.625Z,98812.28
2022-11-20T12:31:40.609Z,98809.56
2022-11-20T12:32:58.885Z,98806.03
2022-11-20T12:34:16.694Z,98810.19
2022-11-20T12:35:54.965Z,98811.78
2022-11-20T12:37:33.925Z,98813.47
2022-11-20T12:39:10.570Z,98813.28
2022-11-20T12:40:39.637Z,98813.16
2022-11-20T12:42:11.020Z,98813.34
2022-11-20T12:43:49.493Z,98801.38
2022-11-20T12:45:45.352Z,98809.09
2022-11-20T12:47:14.287Z,98797.63
2022-11-20T12:48:59.279Z,98796.72
2022-11-20T12:51:08.148Z,98799.47
2022-11-20T12:52:40.541Z,98807.47
2022-11-20T12:53:55.914Z,98793.56
2022-11-20T12:55:24.604Z,98797.88
2022-11-20T12:56:44.268Z,98796.50
2022-11-20T12:58:02.613Z,98792.78
2022-11-20T12:59:35.087Z,98790.31
2022-11-20T13:01:08.133Z,98785.84
2022-11-20T13:02:43.080Z,98787.72
2022-11-20T13:03:58.197Z,98780.75
2022-11-20T13:05:21.107Z,98781.00
2022-11-20T13:06:27.373Z,98771.25
2022-11-20T13:07:33.273Z,98779.03
2022-11-20T13:08:41.570Z,98767.69
2022-11-20T13:09:52.071Z,98761.50
2022-11-20T13:11:21.334Z,98770.06
2022-11-20T13:13:14.685Z,98771.97
2022-11-20T13:15:05.368Z,98773.94
2022-11-20T13:16:31.948Z,98755.78
2022-11-20T13:18:00.504Z,98759.25
2022-11-20T13:19:10.327Z,98766.25
2022-11-20T13:20:18.945Z,98768.09
2022-11-20T13:21:42.555Z,98774.94
2022-11-20T13:23:00.836Z,98774.16
2022-11-20T13:24:31.286Z,98760.31
2022-11-20T13:25:41.334Z,98768.22
2022-11-20T13:26:45.137Z,98761.22
2022-11-20T13:27:50.269Z,98757.56
2022-11-20T13:29:30.834Z,98758.53
2022-11-20T13:30:37.037Z,98755.84
2022-11-20T13:31:46.700Z,98749.91
2022-11-20T13:33:24.966Z,98742.91
2022-11-20T13:34:29.110Z,98738.53
2022-11-20T13:35:41.598Z,98741.06
2022-11-20T13:36:58.568Z,98728.66
2022-11-20T13:38:15.446Z,98723.66
2022-11-20T13:39:27.260Z,98729.44
2022-11-20T13:40:31.609Z,98722.28
2022-11-20T13:41:40.513Z,98722.59
2022-11-20T13:42:44.607Z,98718.44
2022-11-20T13:43:50.183Z,98720.91
2022-11-20T13:44:56.689Z,98724.38
2022-11-20T13:46:10.752Z,98732.19
2022-11-20T13:47:25.932Z,98731.59
2022-11-20T13:48:42.629Z,98728.22
2022-11-20T13:49:46.612Z,98728.16
2022-11-20T13:51:24.576Z,98731.00
2022-11-20T13:52:55.515Z,98729.94
2022-11-20T13:54:35.276Z,98725.63
2022-11-20T13:56:26.646Z,98723.25
2022-11-20T13:58:07.379Z,98719.78
2022-11-20T14:00:11.843Z,98734.56
2022-11-20T14:01:31.192Z,98731.25
2022-11-20T14:02:34.839Z,98739.09
2022-11-20T14:04:05.214Z,98733.94
2022-11-20T14:05:33.797Z,98747.25
2022-11-20T14:06:47.847Z,98743.88
2022-11-20T14:07:53.911Z,98740.50
2022-11-20T14:09:00.369Z,98743.88
2022-11-20T14:10:04.675Z,98746.41
2022-11-20T14:11:28.614Z,98742.97
2022-11-20T14:12:37.895Z,98741.25
2022-11-20T14:14:02.841Z,98742.97
2022-11-20T14:15:06.837Z,98736.00
2022-11-20T14:16:19.135Z,98741.25
2022-11-20T14:17:37.008Z,98741.16
2022-11-20T14:18:40.596Z,98734.34
2022-11-20T14:19:47.279Z,98737.72
2022-11-20T14:20:50.747Z,98735.03
2022-11-20T14:22:20.861Z,98727.28
2022-11-20T14:23:31.414Z,98722.97
2022-11-20T14:24:38.137Z,98722.25
2022-11-20T14:25:46.901Z,98721.41
2022-11-20T14:26:53.084Z,98729.19
2022-11-20T14:28:00.730Z,98727.41
2022-11-20T14:29:05.688Z,98718.84
2022-11-20T14:30:27.386Z,98720.66
2022-11-20T14:31:31.834Z,98714.59
2022-11-20T14:32:49.001Z,98719.81
2022-11-20T14:33:55.922Z,98717.25
2022-11-20T14:35:15.973Z,98712.44
2022-11-20T14:36:24.513Z,98713.63
2022-11-20T14:37:34.763Z,98708.41
2022-11-20T14:38:38.481Z,98715.38
2022-11-20T14:39:54.789Z,98718.88
2022-11-20T14:41:10.553Z,98718.97
2022-11-20T14:42:24.536Z,98712.81
2022-11-20T14:43:30.091Z,98728.72
2022-11-20T14:44:38.750Z,98713.88
2022-11-20T14:45:43.486Z,98719.97
2022-11-20T14:46:47.867Z,98719.88
2022-11-20T14:47:58.678Z,98714.66
2022-11-20T14:49:05.939Z,98706.81
2022-11-20T14:50:30.657Z,98706.81
2022-11-20T14:51:44.201Z,98705.13
2022-11-20T14:53:01.411Z,98706.06
2022-11-20T14:54:18.478Z,98709.56
2022-11-20T14:55:39.533Z,98707.91
2022-11-20T14:57:03.906Z,98708.88
2022-11-20T14:58:26.228Z,98707.19
2022-11-20T14:59:35.711Z,98708.22
2022-11-20T15:00:39.358Z,98696.84
2022-11-20T15:02:00.518Z,98703.03
2022-11-20T15:03:03.954Z,98698.78
2022-11-20T15:04:12.983Z,98703.13
2022-11-20T15:05:19.983Z,98698.78
2022-11-20T15:06:27.918Z,98693.59
2022-11-20T15:07:39.066Z,98698.97
2022-11-20T15:08:53.307Z,98696.41
2022-11-20T15:10:17.905Z,98699.03
2022-11-20T15:11:34.378Z,98701.75
2022-11-20T15:13:02.778Z,98695.88
2022-11-20T15:14:09.025Z,98704.59
2022-11-20T15:15:18.095Z,98708.94
2022-11-20T15:16:25.177Z,98700.34
2022-11-20T15:17:29.273Z,98702.13
2022-11-20T15:18:44.869Z,98709.03
2022-11-20T15:19:48.353Z,98705.63
2022-11-20T15:20:53.495Z,98705.69
2022-11-20T15:21:57.671Z,98703.09
2022-11-20T15:23:05.094Z,98709.16
2022-11-20T15:24:11.140Z,98704.03
2022-11-20T15:25:19.233Z,98704.28
2022-11-20T15:26:28.205Z,98692.13
2022-11-20T15:27:31.831Z,98704.47
2022-11-20T15:28:43.233Z,98702.75
2022-11-20T15:29:46.815Z,98702.00
2022-11-20T15:30:51.103Z,98695.09
2022-11-20T15:31:55.794Z,98708.22
2022-11-20T15:32:59.330Z,98711.84
2022-11-20T15:34:03.147Z,98699.69
2022-11-20T15:35:12.241Z,98704.19
2022-11-20T15:36:15.829Z,98700.72
2022-11-20T15:37:19.760Z,98702.50
2022-11-20T15:38:23.584Z,98694.69
2022-11-20T15:39:27.156Z,98698.13
2022-11-20T15:40:30.634Z,98694.69
2022-11-20T15:41:35.920Z,98695.59
2022-11-20T15:42:39.453Z,98686.81
2022-11-20T15:43:43.681Z,98690.22
2022-11-20T15:44:47.210Z,98682.47
2022-11-20T15:45:57.607Z,98678.91
2022-11-20T15:47:01.512Z,98681.53
2022-11-20T15:48:12.635Z,98679.84
2022-11-20T15:49:20.145Z,98673.78
2022-11-20T15:50:31.018Z,98674.78
2022-11-20T15:52:14.607Z,98686.13
2022-11-20T15:53:22.008Z,98690.38
2022-11-20T15:54:26.058Z,98685.28
2022-11-20T15:55:30.145Z,98685.22
2022-11-20T15:56:34.483Z,98686.81
2022-11-20T15:57:37.917Z,98682.44
2022-11-20T15:58:42.463Z,98676.41
2022-11-20T15:59:46.802Z,98672.78
2022-11-20T16:00:51.108Z,98671.09
2022-11-20T16:01:54.681Z,98674.47
2022-11-20T16:02:58.295Z,98671.81
2022-11-20T16:04:03.476Z,98674.34
2022-11-20T16:05:14.867Z,98672.63
2022-11-20T16:06:19.425Z,98667.41
2022-11-20T16:07:23.000Z,98673.41
2022-11-20T16:08:26.603Z,98669.94
2022-11-20T16:09:31.215Z,98676.03
2022-11-20T16:10:35.311Z,98677.66
2022-11-20T16:11:39.043Z,98670.72
2022-11-20T16:13:01.472Z,98675.81
2022-11-20T16:14:30.333Z,98664.44
2022-11-20T16:15:48.241Z,98668.84
2022-11-20T16:17:06.914Z,98673.13
2022-11-20T16:18:14.511Z,98666.91
2022-11-20T16:19:19.318Z,98675.53
2022-11-20T16:20:22.988Z,98677.34
2022-11-20T16:21:33.415Z,98673.72
2022-11-20T16:22:36.897Z,98670.13
2022-11-20T16:23:41.595Z,98679.69
2022-11-20T16:24:45.212Z,98673.50
2022-11-20T16:25:50.219Z,98679.44
2022-11-20T16:26:57.008Z,98674.16
2022-11-20T16:28:00.550Z,98670.63
2022-11-20T16:29:06.750Z,98675.00
2022-11-20T16:30:11.253Z,98678.38
2022-11-20T16:31:18.577Z,98682.59
2022-11-20T16:32:22.770Z,98680.97
2022-11-20T16:33:26.441Z,98681.69
2022-11-20T16:34:30.200Z,98675.63
2022-11-20T16:35:33.669Z,98675.63
2022-11-20T16:36:41.050Z,98668.59
2022-11-20T16:37:44.955Z,98670.31
2022-11-20T16:38:54.967Z,98673.75
2022-11-20T16:39:58.320Z,98666.84
2022-11-20T16:41:03.713Z,98679.03
2022-11-20T16:42:07.961Z,98682.44
2022-11-20T16:43:15.057Z,98683.22
2022-11-20T16:44:18.487Z,98681.38
2022-11-20T16:45:26.209Z,98678.84
2022-11-20T16:46:33.387Z,98680.66
2022-11-20T16:47:37.292Z,98682.31
2022-11-20T16:48:41.480Z,98680.50
2022-11-20T16:49:46.959Z,98679.63
2022-11-20T16:50:55.314Z,98676.84
2022-11-20T16:52:02.432Z,98675.91
2022-11-20T16:53:06.136Z,98684.56
2022-11-20T16:54:13.051Z,98682.75
2022-11-20T16:55:18.633Z,98684.38
2022-11-20T16:56:28.288Z,98680.84
2022-11-20T16:57:35.590Z,98681.69
2022-11-20T16:59:07.305Z,98668.63
2022-11-20T17:00:12.448Z,98678.22